sensor_id;sensor_type;location;lat;lon;timestamp;temperature;humidity
15131;DHT22;7666;50.920;4.628;2023-04-19T00:00:17;9.50;99.90
15131;DHT22;7666;50.920;4.628;2023-04-19T00:03:04;9.50;99.90
15131;DHT22;7666;50.920;4.628;2023-04-19T00:05:50;9.50;99.90
15131;DHT22;7666;50.920;4.628;2023-04-19T00:08:39;9.40;99.90
15131;DHT22;7666;50.920;4.628;2023-04-19T00:11:25;9.30;99.90
15131;DHT22;7666;50.920;4.628;2023-04-19T00:14:11;9.20;99.90
15131;DHT22;7666;50.920;4.628;2023-04-19T00:16:57;9.20;99.90
15131;DHT22;7666;50.920;4.628;2023-04-19T00:19:43;9.20;99.90
15131;DHT22;7666;50.920;4.628;2023-04-19T00:22:29;9.10;99.90
15131;DHT22;7666;50.920;4.628;2023-04-19T00:25:15;9.10;99.90
15131;DHT22;7666;50.920;4.628;2023-04-19T00:28:01;9.10;99.90
15131;DHT22;7666;50.920;4.628;2023-04-19T00:30:47;9.00;99.90
15131;DHT22;7666;50.920;4.628;2023-04-19T00:33:33;9.00;99.90
15131;DHT22;7666;50.920;4.628;2023-04-19T00:36:19;8.90;99.90
15131;DHT22;7666;50.920;4.628;2023-04-19T00:39:05;9.00;99.90
15131;DHT22;7666;50.920;4.628;2023-04-19T00:41:51;8.90;99.90
15131;DHT22;7666;50.920;4.628;2023-04-19T00:44:37;9.00;99.90
15131;DHT22;7666;50.920;4.628;2023-04-19T00:47:23;9.00;99.90
15131;DHT22;7666;50.920;4.628;2023-04-19T00:50:10;9.00;99.90
15131;DHT22;7666;50.920;4.628;2023-04-19T00:52:57;9.00;99.90
15131;DHT22;7666;50.920;4.628;2023-04-19T00:55:43;9.00;99.90
15131;DHT22;7666;50.920;4.628;2023-04-19T00:58:29;9.00;99.90
15131;DHT22;7666;50.920;4.628;2023-04-19T01:01:16;9.00;99.90
15131;DHT22;7666;50.920;4.628;2023-04-19T01:04:04;8.90;99.90
15131;DHT22;7666;50.920;4.628;2023-04-19T01:06:50;8.90;99.90
15131;DHT22;7666;50.920;4.628;2023-04-19T01:09:42;8.90;99.90
15131;DHT22;7666;50.920;4.628;2023-04-19T01:12:28;8.70;99.90
15131;DHT22;7666;50.920;4.628;2023-04-19T01:15:14;8.70;99.90
15131;DHT22;7666;50.920;4.628;2023-04-19T01:18:00;8.60;99.90
15131;DHT22;7666;50.920;4.628;2023-04-19T01:20:47;8.70;99.90
15131;DHT22;7666;50.920;4.628;2023-04-19T01:23:33;8.70;99.90
15131;DHT22;7666;50.920;4.628;2023-04-19T01:26:20;8.80;99.90
15131;DHT22;7666;50.920;4.628;2023-04-19T01:29:06;8.90;99.90
15131;DHT22;7666;50.920;4.628;2023-04-19T01:31:52;8.90;99.90
15131;DHT22;7666;50.920;4.628;2023-04-19T01:34:39;9.10;99.90
15131;DHT22;7666;50.920;4.628;2023-04-19T01:37:25;9.20;99.90
15131;DHT22;7666;50.920;4.628;2023-04-19T01:40:11;9.20;99.90
15131;DHT22;7666;50.920;4.628;2023-04-19T01:42:57;9.30;99.90
15131;DHT22;7666;50.920;4.628;2023-04-19T01:45:43;9.40;99.90
15131;DHT22;7666;50.920;4.628;2023-04-19T01:48:30;9.50;99.90
15131;DHT22;7666;50.920;4.628;2023-04-19T01:51:16;9.50;99.90
15131;DHT22;7666;50.920;4.628;2023-04-19T01:54:02;9.50;99.90
15131;DHT22;7666;50.920;4.628;2023-04-19T01:56:48;9.60;99.90
15131;DHT22;7666;50.920;4.628;2023-04-19T01:59:34;9.60;99.90
15131;DHT22;7666;50.920;4.628;2023-04-19T02:02:20;9.60;99.90
15131;DHT22;7666;50.920;4.628;2023-04-19T02:05:07;9.60;99.90
15131;DHT22;7666;50.920;4.628;2023-04-19T02:07:53;9.60;99.90
15131;DHT22;7666;50.920;4.628;2023-04-19T02:10:39;9.70;99.90
15131;DHT22;7666;50.920;4.628;2023-04-19T02:13:25;9.70;99.90
15131;DHT22;7666;50.920;4.628;2023-04-19T02:16:11;9.70;99.90
15131;DHT22;7666;50.920;4.628;2023-04-19T02:18:57;9.80;99.90
15131;DHT22;7666;50.920;4.628;2023-04-19T02:21:43;9.80;99.90
15131;DHT22;7666;50.920;4.628;2023-04-19T02:24:29;9.80;99.90
15131;DHT22;7666;50.920;4.628;2023-04-19T02:27:15;9.80;99.90
15131;DHT22;7666;50.920;4.628;2023-04-19T02:30:01;9.80;99.90
15131;DHT22;7666;50.920;4.628;2023-04-19T02:32:48;9.80;99.90
15131;DHT22;7666;50.920;4.628;2023-04-19T02:35:34;9.90;99.90
15131;DHT22;7666;50.920;4.628;2023-04-19T02:38:20;9.90;99.90
15131;DHT22;7666;50.920;4.628;2023-04-19T02:41:06;9.90;99.90
15131;DHT22;7666;50.920;4.628;2023-04-19T02:43:52;9.90;99.90
15131;DHT22;7666;50.920;4.628;2023-04-19T02:46:38;9.90;99.90
15131;DHT22;7666;50.920;4.628;2023-04-19T02:49:24;9.90;99.90
15131;DHT22;7666;50.920;4.628;2023-04-19T02:52:10;10.00;99.90
15131;DHT22;7666;50.920;4.628;2023-04-19T02:54:56;9.90;99.90
15131;DHT22;7666;50.920;4.628;2023-04-19T02:57:42;9.90;99.90
15131;DHT22;7666;50.920;4.628;2023-04-19T03:00:28;10.00;99.90
15131;DHT22;7666;50.920;4.628;2023-04-19T03:03:14;10.00;99.90
15131;DHT22;7666;50.920;4.628;2023-04-19T03:06:01;10.00;99.90
15131;DHT22;7666;50.920;4.628;2023-04-19T03:08:47;10.00;99.90
15131;DHT22;7666;50.920;4.628;2023-04-19T03:11:33;10.00;99.90
15131;DHT22;7666;50.920;4.628;2023-04-19T03:14:20;10.00;99.90
15131;DHT22;7666;50.920;4.628;2023-04-19T03:17:06;10.00;99.90
15131;DHT22;7666;50.920;4.628;2023-04-19T03:19:52;10.00;99.90
15131;DHT22;7666;50.920;4.628;2023-04-19T03:22:38;10.00;99.90
15131;DHT22;7666;50.920;4.628;2023-04-19T03:25:24;10.00;99.90
15131;DHT22;7666;50.920;4.628;2023-04-19T03:28:11;10.00;99.90
15131;DHT22;7666;50.920;4.628;2023-04-19T03:30:56;10.00;99.90
15131;DHT22;7666;50.920;4.628;2023-04-19T03:33:42;10.00;99.90
15131;DHT22;7666;50.920;4.628;2023-04-19T03:36:28;10.00;99.90
15131;DHT22;7666;50.920;4.628;2023-04-19T03:39:15;10.10;99.90
15131;DHT22;7666;50.920;4.628;2023-04-19T03:42:01;10.10;99.90
15131;DHT22;7666;50.920;4.628;2023-04-19T03:44:47;10.00;99.90
15131;DHT22;7666;50.920;4.628;2023-04-19T03:47:33;10.00;99.90
15131;DHT22;7666;50.920;4.628;2023-04-19T03:50:19;10.00;99.90
15131;DHT22;7666;50.920;4.628;2023-04-19T03:53:05;9.90;99.90
15131;DHT22;7666;50.920;4.628;2023-04-19T03:55:51;9.80;99.90
15131;DHT22;7666;50.920;4.628;2023-04-19T03:58:37;9.80;99.90
15131;DHT22;7666;50.920;4.628;2023-04-19T04:01:23;9.80;99.90
15131;DHT22;7666;50.920;4.628;2023-04-19T04:04:10;9.70;99.90
15131;DHT22;7666;50.920;4.628;2023-04-19T04:06:57;9.70;99.90
15131;DHT22;7666;50.920;4.628;2023-04-19T04:09:43;9.60;99.90
15131;DHT22;7666;50.920;4.628;2023-04-19T04:12:29;9.60;99.90
15131;DHT22;7666;50.920;4.628;2023-04-19T04:15:15;9.60;99.90
15131;DHT22;7666;50.920;4.628;2023-04-19T04:18:01;9.50;99.90
15131;DHT22;7666;50.920;4.628;2023-04-19T04:20:47;9.50;99.90
15131;DHT22;7666;50.920;4.628;2023-04-19T04:23:33;9.40;99.90
15131;DHT22;7666;50.920;4.628;2023-04-19T04:26:20;9.40;99.90
15131;DHT22;7666;50.920;4.628;2023-04-19T04:29:06;9.40;99.90
15131;DHT22;7666;50.920;4.628;2023-04-19T04:31:53;9.30;99.90
15131;DHT22;7666;50.920;4.628;2023-04-19T04:34:39;9.30;99.90
15131;DHT22;7666;50.920;4.628;2023-04-19T04:37:27;9.30;99.90
15131;DHT22;7666;50.920;4.628;2023-04-19T04:40:13;9.30;99.90
15131;DHT22;7666;50.920;4.628;2023-04-19T04:43:00;9.30;99.90
15131;DHT22;7666;50.920;4.628;2023-04-19T04:45:49;9.30;99.90
15131;DHT22;7666;50.920;4.628;2023-04-19T04:48:35;9.30;99.90
15131;DHT22;7666;50.920;4.628;2023-04-19T04:51:21;9.30;99.90
15131;DHT22;7666;50.920;4.628;2023-04-19T04:54:07;9.30;99.90
15131;DHT22;7666;50.920;4.628;2023-04-19T04:56:53;9.30;99.90
15131;DHT22;7666;50.920;4.628;2023-04-19T04:59:39;9.30;99.90
15131;DHT22;7666;50.920;4.628;2023-04-19T05:02:25;9.40;99.90
15131;DHT22;7666;50.920;4.628;2023-04-19T05:05:11;9.40;99.90
15131;DHT22;7666;50.920;4.628;2023-04-19T05:07:57;9.40;99.90
15131;DHT22;7666;50.920;4.628;2023-04-19T05:10:43;9.50;99.90
15131;DHT22;7666;50.920;4.628;2023-04-19T05:13:29;9.50;99.90
15131;DHT22;7666;50.920;4.628;2023-04-19T05:16:15;9.50;99.90
15131;DHT22;7666;50.920;4.628;2023-04-19T05:19:01;9.60;99.90
15131;DHT22;7666;50.920;4.628;2023-04-19T05:21:47;9.60;99.90
15131;DHT22;7666;50.920;4.628;2023-04-19T05:24:33;9.60;99.90
15131;DHT22;7666;50.920;4.628;2023-04-19T05:27:19;9.70;99.90
15131;DHT22;7666;50.920;4.628;2023-04-19T05:30:05;9.70;99.90
15131;DHT22;7666;50.920;4.628;2023-04-19T05:32:51;9.80;99.90
15131;DHT22;7666;50.920;4.628;2023-04-19T05:35:37;9.70;99.90
15131;DHT22;7666;50.920;4.628;2023-04-19T05:38:23;9.80;99.90
15131;DHT22;7666;50.920;4.628;2023-04-19T05:41:10;9.80;99.90
15131;DHT22;7666;50.920;4.628;2023-04-19T05:43:56;9.80;99.90
15131;DHT22;7666;50.920;4.628;2023-04-19T05:46:42;9.80;99.90
15131;DHT22;7666;50.920;4.628;2023-04-19T05:49:28;9.80;99.90
15131;DHT22;7666;50.920;4.628;2023-04-19T05:52:14;9.80;99.90
15131;DHT22;7666;50.920;4.628;2023-04-19T05:55:01;9.90;99.90
15131;DHT22;7666;50.920;4.628;2023-04-19T05:57:47;9.90;99.90
15131;DHT22;7666;50.920;4.628;2023-04-19T06:00:33;10.00;99.90
15131;DHT22;7666;50.920;4.628;2023-04-19T06:03:19;10.10;99.90
15131;DHT22;7666;50.920;4.628;2023-04-19T06:06:05;10.10;99.90
15131;DHT22;7666;50.920;4.628;2023-04-19T06:08:51;10.20;99.90
15131;DHT22;7666;50.920;4.628;2023-04-19T06:11:38;10.20;99.90
15131;DHT22;7666;50.920;4.628;2023-04-19T06:14:26;10.30;99.90
15131;DHT22;7666;50.920;4.628;2023-04-19T06:17:12;10.30;99.90
15131;DHT22;7666;50.920;4.628;2023-04-19T06:20:01;10.30;99.90
15131;DHT22;7666;50.920;4.628;2023-04-19T06:22:47;10.50;99.90
15131;DHT22;7666;50.920;4.628;2023-04-19T06:25:34;10.50;99.90
15131;DHT22;7666;50.920;4.628;2023-04-19T06:28:20;10.60;99.90
15131;DHT22;7666;50.920;4.628;2023-04-19T06:31:06;10.60;99.90
15131;DHT22;7666;50.920;4.628;2023-04-19T06:33:52;10.70;99.90
15131;DHT22;7666;50.920;4.628;2023-04-19T06:36:38;10.80;99.90
15131;DHT22;7666;50.920;4.628;2023-04-19T06:39:24;10.90;99.90
15131;DHT22;7666;50.920;4.628;2023-04-19T06:42:11;11.00;99.90
15131;DHT22;7666;50.920;4.628;2023-04-19T06:44:57;11.10;99.90
15131;DHT22;7666;50.920;4.628;2023-04-19T06:47:43;11.10;99.90
15131;DHT22;7666;50.920;4.628;2023-04-19T06:50:30;11.30;99.90
15131;DHT22;7666;50.920;4.628;2023-04-19T06:53:16;11.30;99.90
15131;DHT22;7666;50.920;4.628;2023-04-19T06:56:03;11.40;99.90
15131;DHT22;7666;50.920;4.628;2023-04-19T06:58:49;11.50;99.90
15131;DHT22;7666;50.920;4.628;2023-04-19T07:01:35;11.50;99.90
15131;DHT22;7666;50.920;4.628;2023-04-19T07:04:21;11.60;99.90
15131;DHT22;7666;50.920;4.628;2023-04-19T07:07:07;11.70;99.90
15131;DHT22;7666;50.920;4.628;2023-04-19T07:09:53;11.80;99.90
15131;DHT22;7666;50.920;4.628;2023-04-19T07:12:39;11.80;99.90
15131;DHT22;7666;50.920;4.628;2023-04-19T07:15:25;11.90;99.90
15131;DHT22;7666;50.920;4.628;2023-04-19T07:18:11;12.10;99.90
15131;DHT22;7666;50.920;4.628;2023-04-19T07:20:59;12.20;99.90
15131;DHT22;7666;50.920;4.628;2023-04-19T07:23:45;12.30;99.90
15131;DHT22;7666;50.920;4.628;2023-04-19T07:26:32;12.40;99.90
15131;DHT22;7666;50.920;4.628;2023-04-19T07:29:18;12.60;99.90
15131;DHT22;7666;50.920;4.628;2023-04-19T07:32:04;12.70;99.90
15131;DHT22;7666;50.920;4.628;2023-04-19T07:34:50;12.80;99.90
15131;DHT22;7666;50.920;4.628;2023-04-19T07:37:36;13.00;99.90
15131;DHT22;7666;50.920;4.628;2023-04-19T07:40:22;13.50;99.90
15131;DHT22;7666;50.920;4.628;2023-04-19T07:43:08;13.80;99.90
15131;DHT22;7666;50.920;4.628;2023-04-19T07:45:54;14.20;99.90
15131;DHT22;7666;50.920;4.628;2023-04-19T07:48:40;14.40;99.90
15131;DHT22;7666;50.920;4.628;2023-04-19T07:51:27;14.40;99.90
15131;DHT22;7666;50.920;4.628;2023-04-19T07:54:13;14.30;99.90
15131;DHT22;7666;50.920;4.628;2023-04-19T07:57:01;14.40;99.90
15131;DHT22;7666;50.920;4.628;2023-04-19T07:59:47;14.90;99.90
15131;DHT22;7666;50.920;4.628;2023-04-19T08:02:32;14.70;99.90
15131;DHT22;7666;50.920;4.628;2023-04-19T08:05:19;14.50;99.90
15131;DHT22;7666;50.920;4.628;2023-04-19T08:08:05;14.50;99.90
15131;DHT22;7666;50.920;4.628;2023-04-19T08:10:52;14.60;99.90
15131;DHT22;7666;50.920;4.628;2023-04-19T08:13:39;14.80;99.90
15131;DHT22;7666;50.920;4.628;2023-04-19T08:16:26;15.00;99.90
15131;DHT22;7666;50.920;4.628;2023-04-19T08:19:12;15.20;99.90
15131;DHT22;7666;50.920;4.628;2023-04-19T08:21:58;15.40;99.90
15131;DHT22;7666;50.920;4.628;2023-04-19T08:24:44;15.30;99.90
15131;DHT22;7666;50.920;4.628;2023-04-19T08:27:30;15.40;99.90
15131;DHT22;7666;50.920;4.628;2023-04-19T08:30:16;15.10;99.90
15131;DHT22;7666;50.920;4.628;2023-04-19T08:33:02;14.90;99.90
15131;DHT22;7666;50.920;4.628;2023-04-19T08:35:48;14.70;99.90
15131;DHT22;7666;50.920;4.628;2023-04-19T08:38:34;14.90;99.90
15131;DHT22;7666;50.920;4.628;2023-04-19T08:41:23;15.10;99.90
15131;DHT22;7666;50.920;4.628;2023-04-19T08:44:11;15.30;99.90
15131;DHT22;7666;50.920;4.628;2023-04-19T08:46:58;15.50;99.90
15131;DHT22;7666;50.920;4.628;2023-04-19T08:49:47;15.70;99.90
15131;DHT22;7666;50.920;4.628;2023-04-19T08:52:34;15.90;99.90
15131;DHT22;7666;50.920;4.628;2023-04-19T08:55:21;16.10;99.90
15131;DHT22;7666;50.920;4.628;2023-04-19T08:58:07;16.20;99.90
15131;DHT22;7666;50.920;4.628;2023-04-19T09:00:53;16.30;99.90
15131;DHT22;7666;50.920;4.628;2023-04-19T09:03:42;16.60;99.90
15131;DHT22;7666;50.920;4.628;2023-04-19T09:06:36;16.70;99.90
15131;DHT22;7666;50.920;4.628;2023-04-19T09:09:26;16.50;99.90
15131;DHT22;7666;50.920;4.628;2023-04-19T09:12:16;16.30;99.90
15131;DHT22;7666;50.920;4.628;2023-04-19T09:15:04;16.20;99.90
15131;DHT22;7666;50.920;4.628;2023-04-19T09:18:03;16.30;99.90
15131;DHT22;7666;50.920;4.628;2023-04-19T09:20:51;16.00;99.90
15131;DHT22;7666;50.920;4.628;2023-04-19T09:23:46;15.80;99.90
15131;DHT22;7666;50.920;4.628;2023-04-19T09:26:33;15.50;99.90
15131;DHT22;7666;50.920;4.628;2023-04-19T09:29:19;15.60;99.90
15131;DHT22;7666;50.920;4.628;2023-04-19T09:32:06;15.90;99.90
15131;DHT22;7666;50.920;4.628;2023-04-19T09:34:59;16.20;99.90
15131;DHT22;7666;50.920;4.628;2023-04-19T09:38:00;16.30;99.90
15131;DHT22;7666;50.920;4.628;2023-04-19T09:40:46;16.50;99.90
15131;DHT22;7666;50.920;4.628;2023-04-19T09:43:32;16.40;99.90
15131;DHT22;7666;50.920;4.628;2023-04-19T09:46:35;16.70;99.90
15131;DHT22;7666;50.920;4.628;2023-04-19T09:49:22;16.60;99.90
15131;DHT22;7666;50.920;4.628;2023-04-19T09:52:09;16.80;99.90
15131;DHT22;7666;50.920;4.628;2023-04-19T09:55:00;16.80;99.90
15131;DHT22;7666;50.920;4.628;2023-04-19T09:57:46;16.70;99.90
15131;DHT22;7666;50.920;4.628;2023-04-19T10:00:33;16.60;99.90
15131;DHT22;7666;50.920;4.628;2023-04-19T10:03:20;16.90;99.90
15131;DHT22;7666;50.920;4.628;2023-04-19T10:06:07;16.90;99.90
15131;DHT22;7666;50.920;4.628;2023-04-19T10:08:53;17.30;99.90
15131;DHT22;7666;50.920;4.628;2023-04-19T10:11:43;16.90;99.90
15131;DHT22;7666;50.920;4.628;2023-04-19T10:14:34;17.20;99.90
15131;DHT22;7666;50.920;4.628;2023-04-19T10:17:21;17.40;99.90
15131;DHT22;7666;50.920;4.628;2023-04-19T10:20:25;17.20;99.90
15131;DHT22;7666;50.920;4.628;2023-04-19T10:23:12;17.00;99.90
15131;DHT22;7666;50.920;4.628;2023-04-19T10:25:58;17.20;99.90
15131;DHT22;7666;50.920;4.628;2023-04-19T10:28:44;17.20;99.90
15131;DHT22;7666;50.920;4.628;2023-04-19T10:31:32;17.00;99.90
15131;DHT22;7666;50.920;4.628;2023-04-19T10:34:36;16.60;99.90
15131;DHT22;7666;50.920;4.628;2023-04-19T10:37:24;17.00;99.90
15131;DHT22;7666;50.920;4.628;2023-04-19T10:40:10;16.80;99.90
15131;DHT22;7666;50.920;4.628;2023-04-19T10:49:07;16.60;99.90
15131;DHT22;7666;50.920;4.628;2023-04-19T10:51:54;16.90;99.90
15131;DHT22;7666;50.920;4.628;2023-04-19T10:54:42;16.80;99.90
15131;DHT22;7666;50.920;4.628;2023-04-19T10:58:01;16.40;99.90
15131;DHT22;7666;50.920;4.628;2023-04-19T11:00:50;16.30;99.90
15131;DHT22;7666;50.920;4.628;2023-04-19T11:06:28;16.80;99.90
15131;DHT22;7666;50.920;4.628;2023-04-19T11:09:24;16.90;99.90
15131;DHT22;7666;50.920;4.628;2023-04-19T11:12:12;17.00;99.90
15131;DHT22;7666;50.920;4.628;2023-04-19T11:14:59;17.10;99.90
15131;DHT22;7666;50.920;4.628;2023-04-19T11:17:49;16.80;99.90
15131;DHT22;7666;50.920;4.628;2023-04-19T11:20:36;17.00;99.90
15131;DHT22;7666;50.920;4.628;2023-04-19T11:23:22;17.30;99.90
15131;DHT22;7666;50.920;4.628;2023-04-19T11:26:11;17.50;99.90
15131;DHT22;7666;50.920;4.628;2023-04-19T11:28:57;16.90;99.90
15131;DHT22;7666;50.920;4.628;2023-04-19T11:31:44;16.60;99.90
15131;DHT22;7666;50.920;4.628;2023-04-19T11:34:38;17.00;99.90
15131;DHT22;7666;50.920;4.628;2023-04-19T11:37:30;17.40;99.90
15131;DHT22;7666;50.920;4.628;2023-04-19T11:40:18;17.00;99.90
15131;DHT22;7666;50.920;4.628;2023-04-19T11:43:04;16.70;99.90
15131;DHT22;7666;50.920;4.628;2023-04-19T11:45:50;16.80;99.90
15131;DHT22;7666;50.920;4.628;2023-04-19T11:48:37;16.90;99.90
15131;DHT22;7666;50.920;4.628;2023-04-19T11:51:23;16.90;99.90
15131;DHT22;7666;50.920;4.628;2023-04-19T11:54:12;17.00;99.90
15131;DHT22;7666;50.920;4.628;2023-04-19T11:57:06;17.40;99.90
15131;DHT22;7666;50.920;4.628;2023-04-19T12:00:04;17.50;99.90
15131;DHT22;7666;50.920;4.628;2023-04-19T12:02:58;17.20;99.90
15131;DHT22;7666;50.920;4.628;2023-04-19T12:05:52;17.20;99.90
15131;DHT22;7666;50.920;4.628;2023-04-19T12:08:42;17.60;99.90
15131;DHT22;7666;50.920;4.628;2023-04-19T12:11:46;17.80;99.90
15131;DHT22;7666;50.920;4.628;2023-04-19T12:14:34;17.80;99.90
15131;DHT22;7666;50.920;4.628;2023-04-19T12:17:20;17.80;99.90
15131;DHT22;7666;50.920;4.628;2023-04-19T12:20:07;17.90;99.90
15131;DHT22;7666;50.920;4.628;2023-04-19T12:22:53;17.40;99.90
15131;DHT22;7666;50.920;4.628;2023-04-19T12:25:39;17.10;99.90
15131;DHT22;7666;50.920;4.628;2023-04-19T12:28:26;17.20;99.90
15131;DHT22;7666;50.920;4.628;2023-04-19T12:31:12;17.20;99.90
15131;DHT22;7666;50.920;4.628;2023-04-19T12:33:58;17.50;99.90
15131;DHT22;7666;50.920;4.628;2023-04-19T12:36:45;17.60;99.90
15131;DHT22;7666;50.920;4.628;2023-04-19T12:39:31;17.50;99.90
15131;DHT22;7666;50.920;4.628;2023-04-19T12:42:17;17.40;99.90
15131;DHT22;7666;50.920;4.628;2023-04-19T12:45:03;17.20;99.90
15131;DHT22;7666;50.920;4.628;2023-04-19T12:47:49;16.90;99.90
15131;DHT22;7666;50.920;4.628;2023-04-19T12:50:35;16.90;99.90
15131;DHT22;7666;50.920;4.628;2023-04-19T12:53:21;16.90;99.90
15131;DHT22;7666;50.920;4.628;2023-04-19T12:56:08;17.10;99.90
15131;DHT22;7666;50.920;4.628;2023-04-19T12:58:56;16.80;99.90
15131;DHT22;7666;50.920;4.628;2023-04-19T13:01:42;17.00;99.90
15131;DHT22;7666;50.920;4.628;2023-04-19T13:04:28;17.10;99.90
15131;DHT22;7666;50.920;4.628;2023-04-19T13:07:14;16.80;99.90
15131;DHT22;7666;50.920;4.628;2023-04-19T13:10:01;16.60;99.90
15131;DHT22;7666;50.920;4.628;2023-04-19T13:12:46;16.90;99.90
15131;DHT22;7666;50.920;4.628;2023-04-19T13:15:32;17.00;99.90
15131;DHT22;7666;50.920;4.628;2023-04-19T13:18:18;17.00;99.90
15131;DHT22;7666;50.920;4.628;2023-04-19T13:21:05;17.10;99.90
15131;DHT22;7666;50.920;4.628;2023-04-19T13:23:51;17.30;99.90
15131;DHT22;7666;50.920;4.628;2023-04-19T13:26:38;16.90;99.90
15131;DHT22;7666;50.920;4.628;2023-04-19T13:29:24;16.90;99.90
15131;DHT22;7666;50.920;4.628;2023-04-19T13:32:10;17.00;99.90
15131;DHT22;7666;50.920;4.628;2023-04-19T13:34:57;17.00;99.90
15131;DHT22;7666;50.920;4.628;2023-04-19T13:37:43;17.10;99.90
15131;DHT22;7666;50.920;4.628;2023-04-19T13:40:31;17.00;99.90
15131;DHT22;7666;50.920;4.628;2023-04-19T13:43:17;16.60;99.90
15131;DHT22;7666;50.920;4.628;2023-04-19T13:46:04;16.70;99.90
15131;DHT22;7666;50.920;4.628;2023-04-19T13:48:50;17.00;99.90
15131;DHT22;7666;50.920;4.628;2023-04-19T13:51:36;17.20;99.90
15131;DHT22;7666;50.920;4.628;2023-04-19T13:54:22;17.20;99.90
15131;DHT22;7666;50.920;4.628;2023-04-19T13:57:08;17.30;98.60
15131;DHT22;7666;50.920;4.628;2023-04-19T13:59:54;17.30;99.90
15131;DHT22;7666;50.920;4.628;2023-04-19T14:02:40;17.10;99.90
15131;DHT22;7666;50.920;4.628;2023-04-19T14:05:26;17.20;99.90
15131;DHT22;7666;50.920;4.628;2023-04-19T14:08:12;17.30;99.90
15131;DHT22;7666;50.920;4.628;2023-04-19T14:10:58;17.40;99.90
15131;DHT22;7666;50.920;4.628;2023-04-19T14:13:44;17.30;97.30
15131;DHT22;7666;50.920;4.628;2023-04-19T14:16:30;17.20;99.90
15131;DHT22;7666;50.920;4.628;2023-04-19T14:19:16;17.30;99.50
15131;DHT22;7666;50.920;4.628;2023-04-19T14:22:02;17.30;98.60
15131;DHT22;7666;50.920;4.628;2023-04-19T14:24:48;17.30;98.80
15131;DHT22;7666;50.920;4.628;2023-04-19T14:27:34;17.20;98.00
15131;DHT22;7666;50.920;4.628;2023-04-19T14:30:20;16.80;99.80
15131;DHT22;7666;50.920;4.628;2023-04-19T14:33:06;16.60;99.90
15131;DHT22;7666;50.920;4.628;2023-04-19T14:35:52;16.50;99.90
15131;DHT22;7666;50.920;4.628;2023-04-19T14:38:38;16.50;99.90
15131;DHT22;7666;50.920;4.628;2023-04-19T14:41:24;16.50;99.90
15131;DHT22;7666;50.920;4.628;2023-04-19T14:44:10;16.50;99.90
15131;DHT22;7666;50.920;4.628;2023-04-19T14:46:56;16.70;99.90
15131;DHT22;7666;50.920;4.628;2023-04-19T14:49:42;16.60;99.90
15131;DHT22;7666;50.920;4.628;2023-04-19T14:52:28;16.40;99.40
15131;DHT22;7666;50.920;4.628;2023-04-19T14:55:15;16.30;99.80
15131;DHT22;7666;50.920;4.628;2023-04-19T14:58:00;16.20;99.10
15131;DHT22;7666;50.920;4.628;2023-04-19T15:00:46;16.00;99.90
15131;DHT22;7666;50.920;4.628;2023-04-19T15:03:32;16.20;99.60
15131;DHT22;7666;50.920;4.628;2023-04-19T15:06:18;16.20;99.70
15131;DHT22;7666;50.920;4.628;2023-04-19T15:09:05;16.00;98.20
15131;DHT22;7666;50.920;4.628;2023-04-19T15:11:51;16.10;99.90
15131;DHT22;7666;50.920;4.628;2023-04-19T15:14:37;16.40;99.50
15131;DHT22;7666;50.920;4.628;2023-04-19T15:17:23;16.50;98.00
15131;DHT22;7666;50.920;4.628;2023-04-19T15:20:10;16.40;97.40
15131;DHT22;7666;50.920;4.628;2023-04-19T15:22:56;16.30;96.70
15131;DHT22;7666;50.920;4.628;2023-04-19T15:25:42;16.30;98.90
15131;DHT22;7666;50.920;4.628;2023-04-19T15:28:32;16.40;99.00
15131;DHT22;7666;50.920;4.628;2023-04-19T15:31:19;16.30;97.60
15131;DHT22;7666;50.920;4.628;2023-04-19T15:34:06;16.30;95.90
15131;DHT22;7666;50.920;4.628;2023-04-19T15:36:51;16.30;98.90
15131;DHT22;7666;50.920;4.628;2023-04-19T15:39:37;16.50;97.70
15131;DHT22;7666;50.920;4.628;2023-04-19T15:42:23;16.50;97.10
15131;DHT22;7666;50.920;4.628;2023-04-19T15:45:10;15.90;97.70
15131;DHT22;7666;50.920;4.628;2023-04-19T15:47:56;16.00;98.80
15131;DHT22;7666;50.920;4.628;2023-04-19T15:50:42;16.00;99.40
15131;DHT22;7666;50.920;4.628;2023-04-19T15:53:28;16.10;97.70
15131;DHT22;7666;50.920;4.628;2023-04-19T15:56:14;16.00;98.40
15131;DHT22;7666;50.920;4.628;2023-04-19T15:59:00;15.80;95.30
15131;DHT22;7666;50.920;4.628;2023-04-19T16:01:46;15.80;97.80
15131;DHT22;7666;50.920;4.628;2023-04-19T16:04:32;15.90;96.80
15131;DHT22;7666;50.920;4.628;2023-04-19T16:07:18;15.90;97.40
15131;DHT22;7666;50.920;4.628;2023-04-19T16:10:04;15.80;98.30
15131;DHT22;7666;50.920;4.628;2023-04-19T16:12:50;15.80;97.00
15131;DHT22;7666;50.920;4.628;2023-04-19T16:15:36;15.70;97.60
15131;DHT22;7666;50.920;4.628;2023-04-19T16:18:22;15.50;99.00
15131;DHT22;7666;50.920;4.628;2023-04-19T16:21:08;15.50;99.00
15131;DHT22;7666;50.920;4.628;2023-04-19T16:23:55;15.60;98.60
15131;DHT22;7666;50.920;4.628;2023-04-19T16:26:41;15.60;98.10
15131;DHT22;7666;50.920;4.628;2023-04-19T16:29:27;15.60;98.00
15131;DHT22;7666;50.920;4.628;2023-04-19T16:32:13;15.60;97.30
15131;DHT22;7666;50.920;4.628;2023-04-19T16:34:59;15.50;97.50
15131;DHT22;7666;50.920;4.628;2023-04-19T16:37:45;15.50;98.30
15131;DHT22;7666;50.920;4.628;2023-04-19T16:40:31;15.50;99.00
15131;DHT22;7666;50.920;4.628;2023-04-19T16:43:17;15.40;97.50
15131;DHT22;7666;50.920;4.628;2023-04-19T16:46:05;15.40;97.20
15131;DHT22;7666;50.920;4.628;2023-04-19T16:48:52;15.30;97.90
15131;DHT22;7666;50.920;4.628;2023-04-19T16:51:38;15.30;98.30
15131;DHT22;7666;50.920;4.628;2023-04-19T16:54:24;15.20;97.90
15131;DHT22;7666;50.920;4.628;2023-04-19T16:57:10;15.20;98.00
15131;DHT22;7666;50.920;4.628;2023-04-19T16:59:56;15.10;98.40
15131;DHT22;7666;50.920;4.628;2023-04-19T17:02:42;14.90;98.90
15131;DHT22;7666;50.920;4.628;2023-04-19T17:05:28;14.70;99.50
15131;DHT22;7666;50.920;4.628;2023-04-19T17:08:14;14.70;99.40
15131;DHT22;7666;50.920;4.628;2023-04-19T17:11:00;14.80;99.00
15131;DHT22;7666;50.920;4.628;2023-04-19T17:13:46;14.80;99.00
15131;DHT22;7666;50.920;4.628;2023-04-19T17:16:32;14.70;98.50
15131;DHT22;7666;50.920;4.628;2023-04-19T17:19:18;14.70;99.10
15131;DHT22;7666;50.920;4.628;2023-04-19T17:22:04;14.70;98.80
15131;DHT22;7666;50.920;4.628;2023-04-19T17:24:51;14.60;99.90
15131;DHT22;7666;50.920;4.628;2023-04-19T17:27:40;14.50;99.90
15131;DHT22;7666;50.920;4.628;2023-04-19T17:30:26;14.50;99.90
15131;DHT22;7666;50.920;4.628;2023-04-19T17:33:12;14.50;99.90
15131;DHT22;7666;50.920;4.628;2023-04-19T17:35:58;14.50;99.90
15131;DHT22;7666;50.920;4.628;2023-04-19T17:38:44;14.40;99.90
15131;DHT22;7666;50.920;4.628;2023-04-19T17:41:30;14.30;99.90
15131;DHT22;7666;50.920;4.628;2023-04-19T17:44:16;14.30;99.90
15131;DHT22;7666;50.920;4.628;2023-04-19T17:47:02;14.20;99.90
15131;DHT22;7666;50.920;4.628;2023-04-19T17:49:48;14.20;99.90
15131;DHT22;7666;50.920;4.628;2023-04-19T17:52:35;14.10;99.90
15131;DHT22;7666;50.920;4.628;2023-04-19T17:55:21;14.10;99.90
15131;DHT22;7666;50.920;4.628;2023-04-19T17:58:07;14.10;99.90
15131;DHT22;7666;50.920;4.628;2023-04-19T18:00:53;14.00;99.90
15131;DHT22;7666;50.920;4.628;2023-04-19T18:03:39;14.00;99.90